WS39 weather

Pinewood Air Park
Goodnow, Wisconsin, United States

Public forecast

Using degrees Fahrenheit for public forecast. Weather courtesy of forecast.io.

Closest aviation weather report (METAR) to Pinewood Air Park

Closest report is Rhinelander Oneida County Airport, 9.1 nm (16.9 km) ESE. Retrieved 2019/10/14 23:53 UTC (1 hour ago):

KRHI 142353Z AUTO 23003KT 10SM CLR 03/M02 A2995 RMK AO2 SLP157 T00281022 10089 20028 55002

Closest aviation forecast (TAF) to Pinewood Air Park

Closest forecast is Rhinelander Oneida County Airport, 9.1 nm (16.9 km) ESE. Retrieved 2019-10-15 00:33 UTC (21 minutes ago):

TAF KRHI 142331Z 1500/1524 22003KT P6SM SCT250 FM150300 18005KT P6SM BKN120 FM150600 13008KT P6SM BKN060 FM150900 12007KT P6SM -RA OVC035 WS019/18035KT FM151300 13008G13KT 6SM -RA OVC012 WS019/18035KT FM151500 13008KT 2SM -SHRA OVC006 FM151900 08007KT 3SM -SHRA OVC006